createdAt,value
2022-11-17T00:01:59.841Z,7.34
2022-11-17T00:04:29.958Z,7.34
2022-11-17T00:06:59.087Z,7.42
2022-11-17T00:09:27.761Z,7.46
2022-11-17T00:12:13.741Z,7.46
2022-11-17T00:14:42.894Z,7.53
2022-11-17T00:17:14.373Z,7.59
2022-11-17T00:20:00.327Z,7.59
2022-11-17T00:22:31.331Z,7.61
2022-11-17T00:25:00.096Z,7.57
2022-11-17T00:27:28.534Z,7.50
2022-11-17T00:29:57.219Z,7.52
2022-11-17T00:32:44.721Z,7.51
2022-11-17T00:35:13.144Z,7.50
2022-11-17T00:38:03.061Z,7.53
2022-11-17T00:40:31.679Z,7.55
2022-11-17T00:43:00.092Z,7.54
2022-11-17T00:45:28.503Z,7.55
2022-11-17T00:47:58.357Z,7.60
2022-11-17T00:50:26.798Z,7.52
2022-11-17T00:52:55.239Z,7.55
2022-11-17T00:55:23.810Z,7.59
2022-11-17T00:57:52.283Z,7.51
2022-11-17T01:00:21.522Z,7.53
2022-11-17T01:02:50.030Z,7.61
2022-11-17T01:05:19.795Z,7.61
2022-11-17T01:07:48.246Z,7.66
2022-11-17T01:10:16.784Z,7.67
2022-11-17T01:12:45.306Z,7.67
2022-11-17T01:15:13.708Z,7.69
2022-11-17T01:17:42.307Z,7.70
2022-11-17T01:20:11.379Z,7.68
2022-11-17T01:22:41.308Z,7.65
2022-11-17T01:25:10.122Z,7.70
2022-11-17T01:27:38.591Z,7.78
2022-11-17T01:30:08.171Z,7.76
2022-11-17T01:32:36.576Z,7.73
2022-11-17T01:35:05.443Z,7.76
2022-11-17T01:37:33.921Z,7.77
2022-11-17T01:40:04.557Z,7.82
2022-11-17T01:42:32.962Z,7.87
2022-11-17T01:45:04.928Z,7.83
2022-11-17T01:47:48.304Z,7.84
2022-11-17T01:50:26.053Z,7.76
2022-11-17T01:52:59.529Z,7.82
2022-11-17T01:55:34.161Z,7.81
2022-11-17T01:58:06.713Z,7.81
2022-11-17T02:00:35.613Z,7.78
2022-11-17T02:03:07.065Z,7.76
2022-11-17T02:05:44.168Z,7.72
2022-11-17T02:08:13.206Z,7.68
2022-11-17T02:10:50.185Z,7.66
2022-11-17T02:13:21.313Z,7.62
2022-11-17T02:15:50.546Z,7.66
2022-11-17T02:18:20.915Z,7.63
2022-11-17T02:21:02.577Z,7.60
2022-11-17T02:24:02.390Z,7.61
2022-11-17T02:27:09.832Z,7.67
2022-11-17T02:29:49.337Z,8.03
2022-11-17T02:32:22.750Z,8.18
2022-11-17T02:34:58.075Z,8.22
2022-11-17T02:37:32.707Z,8.30
2022-11-17T02:40:08.037Z,8.28
2022-11-17T02:42:54.008Z,8.27
2022-11-17T02:45:30.123Z,8.39
2022-11-17T02:47:59.407Z,8.57
2022-11-17T02:50:30.608Z,8.80
2022-11-17T02:52:59.218Z,8.96
2022-11-17T02:55:27.745Z,8.91
2022-11-17T02:57:56.164Z,8.68
2022-11-17T03:00:28.039Z,8.66
2022-11-17T03:03:27.582Z,8.54
2022-11-17T03:06:03.949Z,8.65
2022-11-17T03:08:45.476Z,8.76
2022-11-17T03:11:14.691Z,8.82
2022-11-17T03:13:50.409Z,8.40
2022-11-17T03:16:27.988Z,8.20
2022-11-17T03:19:03.976Z,8.14
2022-11-17T03:21:39.340Z,7.94
2022-11-17T03:24:14.905Z,7.83
2022-11-17T03:26:47.876Z,7.75
2022-11-17T03:29:21.299Z,7.71
2022-11-17T03:31:57.392Z,7.63
2022-11-17T03:34:26.884Z,7.64
2022-11-17T03:37:01.647Z,7.63
2022-11-17T03:39:33.691Z,7.69
2022-11-17T03:42:07.834Z,7.71
2022-11-17T03:44:41.014Z,7.80
2022-11-17T03:47:13.375Z,7.84
2022-11-17T03:49:47.336Z,7.97
2022-11-17T03:52:16.103Z,8.39
2022-11-17T03:54:44.679Z,8.17
2022-11-17T03:57:18.133Z,8.10
2022-11-17T03:59:54.059Z,8.04
2022-11-17T04:02:25.620Z,8.16
2022-11-17T04:05:06.595Z,8.62
2022-11-17T04:07:36.710Z,8.74
2022-11-17T04:10:06.439Z,8.90
2022-11-17T04:12:52.430Z,8.96
2022-11-17T04:15:38.448Z,8.69
2022-11-17T04:18:08.377Z,8.40
2022-11-17T04:20:36.923Z,8.27
2022-11-17T04:23:08.591Z,8.23
2022-11-17T04:26:01.349Z,8.48
2022-11-17T04:28:40.421Z,8.61
2022-11-17T04:31:12.104Z,8.54
2022-11-17T04:33:43.598Z,8.44
2022-11-17T04:36:14.121Z,8.41
2022-11-17T04:38:43.534Z,8.39
2022-11-17T04:41:31.449Z,8.36
2022-11-17T04:44:00.688Z,8.32
2022-11-17T04:46:31.148Z,8.48
2022-11-17T04:49:02.503Z,8.54
2022-11-17T04:51:32.081Z,8.66
2022-11-17T04:54:01.468Z,8.58
2022-11-17T04:56:30.120Z,8.56
2022-11-17T04:58:58.951Z,8.70
2022-11-17T05:01:28.728Z,8.70
2022-11-17T05:03:58.769Z,8.63
2022-11-17T05:06:31.962Z,8.60
2022-11-17T05:09:02.347Z,8.63
2022-11-17T05:11:49.198Z,8.61
2022-11-17T05:14:19.016Z,8.66
2022-11-17T05:17:09.519Z,8.66
2022-11-17T05:19:40.586Z,8.66
2022-11-17T05:22:25.379Z,8.72
2022-11-17T05:24:54.230Z,8.88
2022-11-17T05:27:23.806Z,8.91
2022-11-17T05:29:52.278Z,8.93
2022-11-17T05:32:21.126Z,8.96
2022-11-17T05:34:49.566Z,8.93
2022-11-17T05:37:19.375Z,8.86
2022-11-17T05:39:47.906Z,8.79
2022-11-17T05:42:16.571Z,8.75
2022-11-17T05:44:45.026Z,8.75
2022-11-17T05:47:13.857Z,8.74
2022-11-17T05:49:42.296Z,8.70
2022-11-17T05:52:10.762Z,8.65
2022-11-17T05:54:41.004Z,8.66
2022-11-17T05:57:13.316Z,9.01
2022-11-17T05:59:46.497Z,9.29
2022-11-17T06:02:19.795Z,9.29
2022-11-17T06:04:49.953Z,9.29
2022-11-17T06:07:19.371Z,9.54
2022-11-17T06:09:49.298Z,9.71
2022-11-17T06:12:17.813Z,9.98
2022-11-17T06:14:46.246Z,10.22
2022-11-17T06:17:22.756Z,10.21
2022-11-17T06:19:57.243Z,10.21
2022-11-17T06:22:27.317Z,10.28
2022-11-17T06:24:58.324Z,10.28
2022-11-17T06:27:27.688Z,10.39
2022-11-17T06:29:57.218Z,10.27
2022-11-17T06:32:25.866Z,10.21
2022-11-17T06:34:56.314Z,10.15
2022-11-17T06:37:25.616Z,10.04
2022-11-17T06:39:54.224Z,9.99
2022-11-17T06:42:44.800Z,9.90
2022-11-17T06:45:13.361Z,9.84
2022-11-17T06:47:41.869Z,9.80
2022-11-17T06:50:10.946Z,9.82
2022-11-17T06:52:39.698Z,9.87
2022-11-17T06:55:09.813Z,9.84
2022-11-17T06:57:39.811Z,9.81
2022-11-17T07:00:09.996Z,9.82
2022-11-17T07:02:38.482Z,9.82
2022-11-17T07:05:07.372Z,9.74
2022-11-17T07:07:36.109Z,9.71
2022-11-17T07:10:05.066Z,9.75
2022-11-17T07:12:34.660Z,9.73
2022-11-17T07:15:05.101Z,9.69
2022-11-17T07:17:33.638Z,9.63
2022-11-17T07:20:02.331Z,9.61
2022-11-17T07:22:30.905Z,9.63
2022-11-17T07:24:59.610Z,9.65
2022-11-17T07:27:28.236Z,9.66
2022-11-17T07:29:56.827Z,9.66
2022-11-17T07:32:26.863Z,9.71
2022-11-17T07:34:55.394Z,9.70
2022-11-17T07:37:24.415Z,9.72
2022-11-17T07:39:52.888Z,9.78
2022-11-17T07:42:21.340Z,9.89
2022-11-17T07:44:54.549Z,9.93
2022-11-17T07:47:23.152Z,9.96
2022-11-17T07:49:53.020Z,10.02
2022-11-17T07:52:21.576Z,10.20
2022-11-17T07:54:50.108Z,10.22
2022-11-17T07:57:18.896Z,10.34
2022-11-17T07:59:47.379Z,10.40
2022-11-17T08:02:15.885Z,10.50
2022-11-17T08:04:44.450Z,10.55
2022-11-17T08:07:14.565Z,10.65
2022-11-17T08:09:43.289Z,10.69
2022-11-17T08:12:11.829Z,10.74
2022-11-17T08:14:40.395Z,10.75
2022-11-17T08:17:09.137Z,10.85
2022-11-17T08:19:37.651Z,10.98
2022-11-17T08:22:06.155Z,10.99
2022-11-17T08:24:36.109Z,11.09
2022-11-17T08:27:06.908Z,11.22
2022-11-17T08:29:35.399Z,11.27
2022-11-17T08:32:03.901Z,11.30
2022-11-17T08:34:32.374Z,11.32
2022-11-17T08:37:01.520Z,11.32
2022-11-17T08:39:30.044Z,11.37
2022-11-17T08:42:00.055Z,11.42
2022-11-17T08:44:28.525Z,11.48
2022-11-17T08:46:56.999Z,11.59
2022-11-17T08:49:25.517Z,11.63
2022-11-17T08:51:54.031Z,11.72
2022-11-17T08:54:22.514Z,11.69
2022-11-17T08:56:51.014Z,11.72
2022-11-17T08:59:20.951Z,11.72
2022-11-17T09:01:49.490Z,11.73
2022-11-17T09:04:18.642Z,11.79
2022-11-17T09:06:47.311Z,11.86
2022-11-17T09:09:15.837Z,11.82
2022-11-17T09:11:44.364Z,11.82
2022-11-17T09:14:12.833Z,11.87
2022-11-17T09:16:42.625Z,11.87
2022-11-17T09:19:11.002Z,11.90
2022-11-17T09:21:39.453Z,11.91
2022-11-17T09:24:08.377Z,11.93
2022-11-17T09:26:40.783Z,11.90
2022-11-17T09:29:09.760Z,11.87
2022-11-17T09:31:38.420Z,11.93
2022-11-17T09:34:08.347Z,11.90
2022-11-17T09:36:37.134Z,11.94
2022-11-17T09:39:05.775Z,11.89
2022-11-17T09:41:38.506Z,11.86
2022-11-17T09:44:17.413Z,11.92
2022-11-17T09:46:57.209Z,11.85
2022-11-17T09:49:37.065Z,11.87
2022-11-17T09:52:13.704Z,11.86
2022-11-17T09:54:48.207Z,11.94
2022-11-17T09:57:23.137Z,12.02
2022-11-17T10:00:02.997Z,12.10
2022-11-17T10:02:34.290Z,12.16
2022-11-17T10:05:04.769Z,12.14
2022-11-17T10:07:35.625Z,12.09
2022-11-17T10:10:06.961Z,12.05
2022-11-17T10:12:45.677Z,11.95
2022-11-17T10:15:23.985Z,11.84
2022-11-17T10:17:52.687Z,11.83
2022-11-17T10:20:22.720Z,11.94
2022-11-17T10:22:53.186Z,11.86
2022-11-17T10:25:23.990Z,11.92
2022-11-17T10:27:53.841Z,11.95
2022-11-17T10:30:23.449Z,11.96
2022-11-17T10:32:53.496Z,12.02
2022-11-17T10:35:25.729Z,12.08
2022-11-17T10:37:57.596Z,12.21
2022-11-17T10:40:28.294Z,12.23
2022-11-17T10:43:22.032Z,12.10
2022-11-17T10:45:53.282Z,11.93
2022-11-17T10:48:27.022Z,12.08
2022-11-17T10:51:08.085Z,12.58
2022-11-17T10:53:46.766Z,12.84
2022-11-17T10:56:18.941Z,13.18
2022-11-17T10:58:58.798Z,13.38
2022-11-17T11:01:33.061Z,13.04
2022-11-17T11:04:02.548Z,13.35
2022-11-17T11:06:33.379Z,13.23
2022-11-17T11:09:05.495Z,13.02
2022-11-17T11:11:42.446Z,13.18
2022-11-17T11:14:20.253Z,13.58
2022-11-17T11:16:51.174Z,13.90
2022-11-17T11:19:21.116Z,13.80
2022-11-17T11:22:22.365Z,13.61
2022-11-17T11:24:59.192Z,13.20
2022-11-17T11:27:49.449Z,13.58
2022-11-17T11:30:19.754Z,13.82
2022-11-17T11:33:01.098Z,14.21
2022-11-17T11:35:40.955Z,13.77
2022-11-17T11:38:27.989Z,12.86
2022-11-17T11:41:15.902Z,12.75
2022-11-17T11:43:57.631Z,13.12
2022-11-17T11:46:37.582Z,13.11
2022-11-17T11:49:18.814Z,13.40
2022-11-17T11:51:50.344Z,13.60
2022-11-17T11:54:32.769Z,13.39
2022-11-17T11:57:01.840Z,13.30
2022-11-17T11:59:40.820Z,13.07
2022-11-17T12:02:24.177Z,13.27
2022-11-17T12:05:01.503Z,13.63
2022-11-17T12:07:37.591Z,13.61
2022-11-17T12:10:17.601Z,13.88
2022-11-17T12:12:47.727Z,13.92
2022-11-17T12:15:34.542Z,13.65
2022-11-17T12:18:06.401Z,13.44
2022-11-17T12:21:01.659Z,13.75
2022-11-17T12:23:57.468Z,13.87
2022-11-17T12:26:30.002Z,14.17
2022-11-17T12:29:30.697Z,14.01
2022-11-17T12:32:01.366Z,13.89
2022-11-17T12:34:32.698Z,13.79
2022-11-17T12:37:26.508Z,13.53
2022-11-17T12:40:03.862Z,13.45
2022-11-17T12:42:34.562Z,13.38
2022-11-17T12:45:11.796Z,13.41
2022-11-17T12:47:42.054Z,13.36
2022-11-17T12:50:25.553Z,13.48
2022-11-17T12:53:18.234Z,13.46
2022-11-17T12:56:03.645Z,13.44
2022-11-17T12:58:43.634Z,13.68
2022-11-17T13:01:17.043Z,13.89
2022-11-17T13:03:53.586Z,13.58
2022-11-17T13:06:37.483Z,13.67
2022-11-17T13:09:08.090Z,13.60
2022-11-17T13:11:36.840Z,13.88
2022-11-17T13:14:11.974Z,13.93
2022-11-17T13:16:46.992Z,13.74
2022-11-17T13:19:33.059Z,13.52
2022-11-17T13:22:03.688Z,13.49
2022-11-17T13:24:34.194Z,13.36
2022-11-17T13:27:07.271Z,13.32
2022-11-17T13:29:37.852Z,13.43
2022-11-17T13:32:18.544Z,13.41
2022-11-17T13:34:49.517Z,13.32
2022-11-17T13:37:20.749Z,13.35
2022-11-17T13:40:01.501Z,13.39
2022-11-17T13:42:34.930Z,13.38
2022-11-17T13:45:06.898Z,13.38
2022-11-17T13:47:47.405Z,13.35
2022-11-17T13:50:35.451Z,13.31
2022-11-17T13:53:07.756Z,13.25
2022-11-17T13:55:36.702Z,13.21
2022-11-17T13:58:07.866Z,13.14
2022-11-17T14:00:37.790Z,13.06
2022-11-17T14:03:33.258Z,13.01
2022-11-17T14:06:05.246Z,13.08
2022-11-17T14:08:35.748Z,13.10
2022-11-17T14:11:22.220Z,13.14
2022-11-17T14:13:53.874Z,13.15
2022-11-17T14:16:26.549Z,13.23
2022-11-17T14:19:04.338Z,13.22
2022-11-17T14:21:34.448Z,13.16
2022-11-17T14:24:11.083Z,13.04
2022-11-17T14:26:42.920Z,12.95
2022-11-17T14:29:12.703Z,12.95
2022-11-17T14:31:41.208Z,12.88
2022-11-17T14:34:09.771Z,12.87
2022-11-17T14:36:41.001Z,12.87
2022-11-17T14:39:16.149Z,12.84
2022-11-17T14:41:46.143Z,12.78
2022-11-17T14:44:14.678Z,12.74
2022-11-17T14:46:43.718Z,12.73
2022-11-17T14:49:12.684Z,12.76
2022-11-17T14:51:42.886Z,12.74
2022-11-17T14:54:11.273Z,12.73
2022-11-17T14:56:39.609Z,12.73
2022-11-17T14:59:09.128Z,12.62
2022-11-17T15:01:38.642Z,12.52
2022-11-17T15:04:34.429Z,12.49
2022-11-17T15:06:57.918Z,12.37
2022-11-17T15:09:26.454Z,12.17
2022-11-17T15:11:54.971Z,12.00
2022-11-17T15:14:24.211Z,11.86
2022-11-17T15:16:52.726Z,12.13
2022-11-17T15:19:21.214Z,12.34
2022-11-17T15:21:49.805Z,12.27
2022-11-17T15:24:19.816Z,12.37
2022-11-17T15:26:48.325Z,12.34
2022-11-17T15:29:17.112Z,12.32
2022-11-17T15:31:46.090Z,12.20
2022-11-17T15:34:19.898Z,12.13
2022-11-17T15:36:48.964Z,12.04
2022-11-17T15:39:19.649Z,11.94
2022-11-17T15:41:48.856Z,11.85
2022-11-17T15:44:18.764Z,11.73
2022-11-17T15:46:48.156Z,11.67
2022-11-17T15:49:17.297Z,11.63
2022-11-17T15:51:46.244Z,11.57
2022-11-17T15:54:20.058Z,11.48
2022-11-17T15:56:51.728Z,11.36
2022-11-17T15:59:20.669Z,11.30
2022-11-17T16:01:49.543Z,11.44
2022-11-17T16:04:18.177Z,11.25
2022-11-17T16:06:47.669Z,11.10
2022-11-17T16:09:17.107Z,10.94
2022-11-17T16:11:46.374Z,10.85
2022-11-17T16:14:16.246Z,10.77
2022-11-17T16:16:46.721Z,10.69
2022-11-17T16:19:15.661Z,10.67
2022-11-17T16:21:44.601Z,10.58
2022-11-17T16:24:13.220Z,10.57
2022-11-17T16:26:41.962Z,10.56
2022-11-17T16:29:10.788Z,10.50
2022-11-17T16:31:41.125Z,10.52
2022-11-17T16:34:13.320Z,10.42
2022-11-17T16:36:44.710Z,10.46
2022-11-17T16:39:16.572Z,10.42
2022-11-17T16:41:46.411Z,10.37
2022-11-17T16:44:16.795Z,10.36
2022-11-17T16:46:48.448Z,10.37
2022-11-17T16:49:19.509Z,10.36
2022-11-17T16:51:49.594Z,10.35
2022-11-17T16:54:18.801Z,10.34
2022-11-17T16:56:47.407Z,10.34
2022-11-17T16:59:17.004Z,10.36
2022-11-17T17:01:47.587Z,10.33
2022-11-17T17:04:16.119Z,10.26
2022-11-17T17:06:45.865Z,10.21
2022-11-17T17:09:15.585Z,10.15
2022-11-17T17:11:44.558Z,10.16
2022-11-17T17:14:15.887Z,10.18
2022-11-17T17:16:44.796Z,10.16
2022-11-17T17:19:16.282Z,10.26
2022-11-17T17:21:45.481Z,10.13
2022-11-17T17:24:13.932Z,10.06
2022-11-17T17:26:42.780Z,10.03
2022-11-17T17:29:12.796Z,10.04
2022-11-17T17:31:42.791Z,9.98
2022-11-17T17:34:12.890Z,9.97
2022-11-17T17:36:42.726Z,9.99
2022-11-17T17:39:14.499Z,10.00
2022-11-17T17:41:44.452Z,10.07
2022-11-17T17:44:16.198Z,10.38
2022-11-17T17:46:45.558Z,10.63
2022-11-17T17:49:14.765Z,10.62
2022-11-17T17:51:47.542Z,10.77
2022-11-17T17:54:17.893Z,10.83
2022-11-17T17:56:47.232Z,10.88
2022-11-17T17:59:16.574Z,10.90
2022-11-17T18:01:47.703Z,10.90
2022-11-17T18:04:17.243Z,10.90
2022-11-17T18:06:48.236Z,10.97
2022-11-17T18:09:19.314Z,11.01
2022-11-17T18:11:50.651Z,11.01
2022-11-17T18:14:24.288Z,11.05
2022-11-17T18:16:53.844Z,11.02
2022-11-17T18:19:25.758Z,11.04
2022-11-17T18:21:58.257Z,11.05
2022-11-17T18:24:26.886Z,11.01
2022-11-17T18:26:55.467Z,11.01
2022-11-17T18:29:24.705Z,10.99
2022-11-17T18:31:53.235Z,11.01
2022-11-17T18:34:23.527Z,10.96
2022-11-17T18:36:53.463Z,10.92
2022-11-17T18:39:23.446Z,10.84
2022-11-17T18:41:52.075Z,10.92
2022-11-17T18:44:20.700Z,11.04
2022-11-17T18:46:49.299Z,11.08
2022-11-17T18:49:18.514Z,11.12
2022-11-17T18:51:47.333Z,10.99
2022-11-17T18:54:15.909Z,11.00
2022-11-17T18:56:45.772Z,10.97
2022-11-17T18:59:14.505Z,10.90
2022-11-17T19:01:44.083Z,10.84
2022-11-17T19:04:14.353Z,10.80
2022-11-17T19:06:43.238Z,10.75
2022-11-17T19:09:12.368Z,10.72
2022-11-17T19:11:40.950Z,10.74
2022-11-17T19:14:10.848Z,10.78
2022-11-17T19:16:44.093Z,10.89
2022-11-17T19:19:15.175Z,10.96
2022-11-17T19:21:44.455Z,10.96
2022-11-17T19:24:14.738Z,11.01
2022-11-17T19:26:43.344Z,11.10
2022-11-17T19:29:17.097Z,11.10
2022-11-17T19:31:46.973Z,11.15
2022-11-17T19:34:16.359Z,11.17
2022-11-17T19:36:45.408Z,11.31
2022-11-17T19:39:15.115Z,11.29
2022-11-17T19:41:44.938Z,11.21
2022-11-17T19:44:14.801Z,11.56
2022-11-17T19:46:45.357Z,11.54
2022-11-17T19:49:14.069Z,11.46
2022-11-17T19:51:42.755Z,11.40
2022-11-17T19:54:13.617Z,11.39
2022-11-17T19:56:42.104Z,11.30
2022-11-17T19:59:15.540Z,11.25
2022-11-17T20:01:46.820Z,11.07
2022-11-17T20:04:15.323Z,10.96
2022-11-17T20:06:43.846Z,10.93
2022-11-17T20:09:13.937Z,10.86
2022-11-17T20:11:43.017Z,10.71
2022-11-17T20:14:11.528Z,10.49
2022-11-17T20:16:40.063Z,10.30
2022-11-17T20:19:13.819Z,10.12
2022-11-17T20:21:42.691Z,9.91
2022-11-17T20:24:11.794Z,9.79
2022-11-17T20:26:42.946Z,9.66
2022-11-17T20:29:11.384Z,9.36
2022-11-17T20:31:40.333Z,9.21
2022-11-17T20:34:13.574Z,9.07
2022-11-17T20:36:42.026Z,9.02
2022-11-17T20:39:11.156Z,8.89
2022-11-17T20:41:39.678Z,8.93
2022-11-17T20:44:23.695Z,8.79
2022-11-17T20:46:53.392Z,8.73
2022-11-17T20:49:23.461Z,8.69
2022-11-17T20:51:52.124Z,8.63
2022-11-17T20:54:20.713Z,8.59
2022-11-17T20:56:49.193Z,8.49
2022-11-17T20:59:20.267Z,8.48
2022-11-17T21:01:50.219Z,8.54
2022-11-17T21:04:18.918Z,8.51
2022-11-17T21:06:48.793Z,8.50
2022-11-17T21:09:17.812Z,8.50
2022-11-17T21:11:58.391Z,8.46
2022-11-17T21:14:28.094Z,8.44
2022-11-17T21:16:57.765Z,8.42
2022-11-17T21:19:26.393Z,8.35
2022-11-17T21:21:56.306Z,8.40
2022-11-17T21:24:25.905Z,8.33
2022-11-17T21:26:54.617Z,8.27
2022-11-17T21:29:23.222Z,8.30
2022-11-17T21:31:51.692Z,8.31
2022-11-17T21:34:20.274Z,8.35
2022-11-17T21:36:48.956Z,8.35
2022-11-17T21:39:19.750Z,8.31
2022-11-17T21:41:48.318Z,8.27
2022-11-17T21:44:16.832Z,8.26
2022-11-17T21:46:45.239Z,8.23
2022-11-17T21:49:14.292Z,8.28
2022-11-17T21:51:42.919Z,8.28
2022-11-17T21:54:11.378Z,8.28
2022-11-17T21:56:41.393Z,8.28
2022-11-17T21:59:12.957Z,8.31
2022-11-17T22:01:41.809Z,8.35
2022-11-17T22:04:12.009Z,8.31
2022-11-17T22:06:40.553Z,8.29
2022-11-17T22:09:09.666Z,8.29
2022-11-17T22:11:38.819Z,8.28
2022-11-17T22:14:12.113Z,8.34
2022-11-17T22:16:42.045Z,8.37
2022-11-17T22:19:10.644Z,8.33
2022-11-17T22:21:39.893Z,8.36
2022-11-17T22:24:11.027Z,8.37
2022-11-17T22:26:41.265Z,8.33
2022-11-17T22:29:13.792Z,8.26
2022-11-17T22:31:42.835Z,8.31
2022-11-17T22:34:11.346Z,8.30
2022-11-17T22:36:40.206Z,8.26
2022-11-17T22:39:09.252Z,8.32
2022-11-17T22:41:37.831Z,8.32
2022-11-17T22:44:07.294Z,8.36
2022-11-17T22:46:37.102Z,8.36
2022-11-17T22:49:05.558Z,8.31
2022-11-17T22:51:51.376Z,8.32
2022-11-17T22:54:19.796Z,8.31
2022-11-17T22:56:48.284Z,8.29
2022-11-17T22:59:17.141Z,8.25
2022-11-17T23:01:47.085Z,8.25
2022-11-17T23:04:16.411Z,8.20
2022-11-17T23:06:45.628Z,8.22
2022-11-17T23:09:14.469Z,8.25
2022-11-17T23:11:43.249Z,8.22
2022-11-17T23:14:14.079Z,8.20
2022-11-17T23:16:42.931Z,8.21
2022-11-17T23:19:15.525Z,8.16
2022-11-17T23:21:44.395Z,8.18
2022-11-17T23:24:14.496Z,8.12
2022-11-17T23:26:43.673Z,8.12
2022-11-17T23:29:12.249Z,8.06
2022-11-17T23:31:40.780Z,8.00
2022-11-17T23:34:09.774Z,7.94
2022-11-17T23:36:39.988Z,7.84
2022-11-17T23:39:08.696Z,7.93
2022-11-17T23:41:37.311Z,7.80
2022-11-17T23:44:06.280Z,7.80
2022-11-17T23:46:34.847Z,7.82
2022-11-17T23:49:03.494Z,7.89
2022-11-17T23:51:32.105Z,7.91
2022-11-17T23:54:03.123Z,7.89
2022-11-17T23:56:33.628Z,7.88
2022-11-17T23:59:02.242Z,7.87
